createdAt,value
2022-08-07T00:00:50.389Z,12.49
2022-08-07T00:02:36.920Z,12.70
2022-08-07T00:02:50.386Z,12.54
2022-08-07T00:03:49.362Z,12.67
2022-08-07T00:04:49.435Z,12.67
2022-08-07T00:05:49.330Z,12.64
2022-08-07T00:06:51.685Z,12.70
2022-08-07T00:07:50.633Z,12.74
2022-08-07T00:08:50.305Z,12.78
2022-08-07T00:10:04.657Z,12.69
2022-08-07T00:10:57.600Z,12.71
2022-08-07T00:11:55.477Z,12.64
2022-08-07T00:13:00.541Z,12.70
2022-08-07T00:13:50.255Z,12.64
2022-08-07T00:14:49.232Z,12.82
2022-08-07T00:15:50.881Z,12.67
2022-08-07T00:16:49.213Z,12.74
2022-08-07T00:17:49.232Z,12.69
2022-08-07T00:18:49.193Z,12.62
2022-08-07T00:20:02.475Z,12.62
2022-08-07T00:20:50.177Z,12.64
2022-08-07T00:21:56.705Z,12.60
2022-08-07T00:22:51.634Z,12.74
2022-08-07T00:23:49.145Z,12.64
2022-08-07T00:24:49.131Z,12.74
2022-08-07T00:26:00.381Z,12.77
2022-08-07T00:26:58.970Z,12.71
2022-08-07T00:27:52.370Z,12.79
2022-08-07T00:28:56.576Z,12.74
2022-08-07T00:29:50.075Z,12.63
2022-08-07T00:30:49.074Z,12.66
2022-08-07T00:31:49.219Z,12.59
2022-08-07T00:32:49.069Z,12.46
2022-08-07T00:33:49.029Z,12.29
2022-08-07T00:34:49.031Z,12.41
2022-08-07T00:35:49.611Z,12.23
2022-08-07T00:36:50.026Z,12.24
2022-08-07T00:37:48.987Z,12.23
2022-08-07T00:38:48.995Z,12.15
2022-08-07T00:39:54.513Z,12.16
2022-08-07T00:40:49.958Z,11.97
2022-08-07T00:41:53.715Z,11.89
2022-08-07T00:42:50.316Z,11.90
2022-08-07T00:44:01.617Z,11.93
2022-08-07T00:44:49.925Z,11.93
2022-08-07T00:45:48.918Z,11.87
2022-08-07T00:46:48.904Z,11.94
2022-08-07T00:48:09.741Z,11.94
2022-08-07T00:48:51.722Z,11.99
2022-08-07T00:50:20.315Z,12.02
2022-08-07T00:50:51.069Z,11.99
2022-08-07T00:51:57.071Z,12.04
2022-08-07T00:52:49.867Z,11.99
2022-08-07T00:53:50.805Z,11.99
2022-08-07T00:54:53.816Z,12.02
2022-08-07T00:56:02.980Z,11.99
2022-08-07T00:56:50.163Z,12.11
2022-08-07T00:57:55.226Z,12.01
2022-08-07T00:58:50.091Z,12.05
2022-08-07T00:59:48.774Z,12.01
2022-08-07T01:00:51.358Z,12.01
2022-08-07T01:01:48.815Z,11.99
2022-08-07T01:02:48.759Z,12.08
2022-08-07T01:03:56.941Z,12.04
2022-08-07T01:04:49.717Z,12.08
2022-08-07T01:05:53.591Z,11.97
2022-08-07T01:06:49.777Z,12.04
2022-08-07T01:07:48.707Z,11.99
2022-08-07T01:08:53.450Z,12.04
2022-08-07T01:10:06.196Z,12.02
2022-08-07T01:10:54.366Z,12.12
2022-08-07T01:12:09.537Z,12.02
2022-08-07T01:12:53.206Z,12.02
2022-08-07T01:13:56.068Z,12.08
2022-08-07T01:14:49.624Z,12.09
2022-08-07T01:16:01.051Z,12.16
2022-08-07T01:16:49.601Z,12.09
2022-08-07T01:17:48.610Z,12.05
2022-08-07T01:18:48.590Z,11.94
2022-08-07T01:19:54.211Z,12.02
2022-08-07T01:20:57.308Z,12.02
2022-08-07T01:21:48.551Z,11.89
2022-08-07T01:23:00.669Z,11.96
2022-08-07T01:23:49.533Z,11.93
2022-08-07T01:24:48.530Z,11.94
2022-08-07T01:25:55.347Z,11.80
2022-08-07T01:26:52.138Z,11.87
2022-08-07T01:27:51.123Z,11.78
2022-08-07T01:28:48.641Z,11.86
2022-08-07T01:29:48.468Z,11.80
2022-08-07T01:30:48.470Z,11.75
2022-08-07T01:31:48.832Z,11.71
2022-08-07T01:32:48.476Z,11.75
2022-08-07T01:33:55.886Z,11.62
2022-08-07T01:34:49.423Z,11.65
2022-08-07T01:35:53.978Z,11.68
2022-08-07T01:36:51.519Z,11.74
2022-08-07T01:37:48.405Z,11.67
2022-08-07T01:38:48.386Z,11.70
2022-08-07T01:39:48.417Z,11.61
2022-08-07T01:40:48.357Z,11.59
2022-08-07T01:42:07.465Z,11.64
2022-08-07T01:42:57.293Z,11.53
2022-08-07T01:43:49.347Z,11.52
2022-08-07T01:44:48.320Z,11.54
2022-08-07T01:45:48.307Z,11.38
2022-08-07T01:46:49.314Z,11.34
2022-08-07T01:48:18.169Z,11.39
2022-08-07T01:48:49.286Z,11.41
2022-08-07T01:49:48.281Z,11.43
2022-08-07T01:50:49.271Z,11.43
2022-08-07T01:52:03.175Z,11.46
2022-08-07T01:52:49.634Z,11.41
2022-08-07T01:54:00.775Z,11.43
2022-08-07T01:54:49.231Z,11.38
2022-08-07T01:55:48.225Z,11.46
2022-08-07T01:56:49.128Z,11.43
2022-08-07T01:58:01.632Z,11.44
2022-08-07T01:58:49.183Z,11.52
2022-08-07T01:59:48.245Z,11.54
2022-08-07T02:00:49.294Z,11.50
2022-08-07T02:02:02.795Z,11.50
2022-08-07T02:03:18.324Z,11.49
2022-08-07T02:03:51.183Z,11.46
2022-08-07T02:04:55.641Z,11.47
2022-08-07T02:05:59.290Z,11.43
2022-08-07T02:06:49.107Z,11.35
2022-08-07T02:07:50.489Z,11.32
2022-08-07T02:08:48.087Z,11.46
2022-08-07T02:09:52.876Z,11.39
2022-08-07T02:10:55.155Z,11.44
2022-08-07T02:12:02.830Z,11.39
2022-08-07T02:12:50.151Z,11.46
2022-08-07T02:13:58.278Z,11.46
2022-08-07T02:14:49.023Z,11.46
2022-08-07T02:15:48.015Z,11.43
2022-08-07T02:16:49.011Z,11.32
2022-08-07T02:17:49.601Z,11.38
2022-08-07T02:18:47.987Z,11.41
2022-08-07T02:20:06.625Z,11.38
2022-08-07T02:20:48.966Z,11.36
2022-08-07T02:21:55.119Z,11.36
2022-08-07T02:22:47.956Z,11.43
2022-08-07T02:23:49.328Z,11.36
2022-08-07T02:24:48.523Z,11.29
2022-08-07T02:26:31.624Z,11.35
2022-08-07T02:26:48.909Z,11.32
2022-08-07T02:27:51.959Z,11.35
2022-08-07T02:28:48.892Z,11.32
2022-08-07T02:29:54.155Z,11.31
2022-08-07T02:30:47.860Z,11.28
2022-08-07T02:31:48.553Z,11.34
2022-08-07T02:33:00.426Z,11.28
2022-08-07T02:34:03.105Z,11.24
2022-08-07T02:34:51.293Z,11.25
2022-08-07T02:36:30.525Z,11.29
2022-08-07T02:36:48.814Z,11.25
2022-08-07T02:37:47.816Z,11.24
2022-08-07T02:38:50.801Z,11.16
2022-08-07T02:40:02.085Z,11.16
2022-08-07T02:40:51.539Z,11.10
2022-08-07T02:41:54.444Z,11.13
2022-08-07T02:42:47.773Z,11.25
2022-08-07T02:43:49.028Z,11.24
2022-08-07T02:44:48.779Z,11.10
2022-08-07T02:46:00.556Z,11.10
2022-08-07T02:46:52.794Z,11.06
2022-08-07T02:47:49.376Z,11.09
2022-08-07T02:48:55.207Z,10.96
2022-08-07T02:49:57.529Z,10.99
2022-08-07T02:50:48.659Z,11.03
2022-08-07T02:51:51.879Z,11.07
2022-08-07T02:52:48.846Z,11.02
2022-08-07T02:53:47.643Z,10.91
2022-08-07T02:54:47.638Z,10.99
2022-08-07T02:56:03.472Z,11.06
2022-08-07T02:56:48.605Z,11.02
2022-08-07T02:57:47.619Z,10.86
2022-08-07T02:58:48.339Z,10.95
2022-08-07T02:59:55.231Z,10.89
2022-08-07T03:00:48.595Z,10.83
2022-08-07T03:01:47.615Z,10.88
2022-08-07T03:02:55.102Z,10.86
2022-08-07T03:03:50.062Z,10.78
2022-08-07T03:04:47.533Z,10.83
2022-08-07T03:05:47.518Z,10.77
2022-08-07T03:06:48.244Z,10.86
2022-08-07T03:08:07.531Z,10.81
2022-08-07T03:08:48.490Z,10.78
2022-08-07T03:09:52.487Z,10.73
2022-08-07T03:10:48.465Z,10.86
2022-08-07T03:11:52.379Z,10.73
2022-08-07T03:12:48.473Z,10.80
2022-08-07T03:13:49.824Z,10.74
2022-08-07T03:14:52.022Z,10.68
2022-08-07T03:15:56.163Z,10.65
2022-08-07T03:16:48.414Z,10.47
2022-08-07T03:17:53.806Z,10.43
2022-08-07T03:18:47.398Z,10.40
2022-08-07T03:19:52.846Z,10.34
2022-08-07T03:20:48.368Z,10.10
2022-08-07T03:21:50.865Z,10.19
2022-08-07T03:22:50.659Z,10.18
2022-08-07T03:24:27.780Z,10.10
2022-08-07T03:24:48.335Z,10.03
2022-08-07T03:25:47.316Z,10.10
2022-08-07T03:26:51.471Z,10.00
2022-08-07T03:28:08.925Z,10.04
2022-08-07T03:28:48.298Z,10.01
2022-08-07T03:29:49.570Z,10.15
2022-08-07T03:30:47.268Z,10.21
2022-08-07T03:31:49.802Z,10.24
2022-08-07T03:32:49.171Z,10.19
2022-08-07T03:33:48.247Z,10.24
2022-08-07T03:35:16.598Z,10.15
2022-08-07T03:35:50.176Z,10.26
2022-08-07T03:36:47.207Z,10.25
2022-08-07T03:37:54.028Z,10.26
2022-08-07T03:38:48.190Z,10.34
2022-08-07T03:40:13.275Z,10.40
2022-08-07T03:40:48.227Z,10.34
2022-08-07T03:41:50.739Z,10.34
2022-08-07T03:42:49.361Z,10.40
2022-08-07T03:43:57.368Z,10.39
2022-08-07T03:44:53.719Z,10.39
2022-08-07T03:45:47.780Z,10.39
2022-08-07T03:47:10.738Z,10.36
2022-08-07T03:47:51.449Z,10.32
2022-08-07T03:49:02.420Z,10.37
2022-08-07T03:49:52.483Z,10.26
2022-08-07T03:50:56.107Z,10.42
2022-08-07T03:51:55.314Z,10.34
2022-08-07T03:52:48.055Z,10.33
2022-08-07T03:54:05.884Z,10.37
2022-08-07T03:54:55.207Z,10.37
2022-08-07T03:55:58.005Z,10.26
2022-08-07T03:57:04.037Z,10.32
2022-08-07T03:58:34.344Z,10.34
2022-08-07T03:59:08.571Z,10.32
2022-08-07T04:00:01.701Z,10.25
2022-08-07T04:00:53.288Z,10.28
2022-08-07T04:01:47.006Z,10.15
2022-08-07T04:02:47.398Z,10.17
2022-08-07T04:03:49.824Z,10.07
2022-08-07T04:04:47.931Z,10.18
2022-08-07T04:05:46.919Z,10.18
2022-08-07T04:06:50.776Z,10.28
2022-08-07T04:07:47.741Z,10.32
2022-08-07T04:08:46.912Z,10.34
2022-08-07T04:09:50.313Z,10.37
2022-08-07T04:10:53.893Z,10.43
2022-08-07T04:12:27.405Z,10.40
2022-08-07T04:12:47.853Z,10.39
2022-08-07T04:14:09.914Z,10.42
2022-08-07T04:14:49.148Z,10.25
2022-08-07T04:15:49.073Z,10.22
2022-08-07T04:16:58.556Z,10.01
2022-08-07T04:18:56.738Z,10.01
2022-08-07T04:18:59.356Z,9.97
2022-08-07T04:19:52.011Z,9.94
2022-08-07T04:20:54.687Z,10.00
2022-08-07T04:21:59.353Z,10.12
2022-08-07T04:22:53.645Z,10.14
2022-08-07T04:24:03.506Z,10.21
2022-08-07T04:24:47.723Z,10.28
2022-08-07T04:25:46.713Z,10.15
2022-08-07T04:26:46.696Z,10.18
2022-08-07T04:27:59.196Z,10.14
2022-08-07T04:28:47.687Z,10.22
2022-08-07T04:29:58.219Z,10.10
2022-08-07T04:30:55.300Z,10.24
2022-08-07T04:32:02.967Z,10.28
2022-08-07T04:32:47.860Z,10.37
2022-08-07T04:33:46.637Z,10.32
2022-08-07T04:34:47.623Z,10.43
2022-08-07T04:35:50.239Z,10.43
2022-08-07T04:36:48.721Z,10.42
2022-08-07T04:38:03.035Z,10.44
2022-08-07T04:38:47.585Z,10.44
2022-08-07T04:39:49.795Z,10.53
2022-08-07T04:40:52.531Z,10.62
2022-08-07T04:41:50.356Z,10.62
2022-08-07T04:42:46.568Z,10.63
2022-08-07T04:44:13.090Z,10.68
2022-08-07T04:44:54.547Z,10.60
2022-08-07T04:46:00.873Z,10.80
2022-08-07T04:46:59.255Z,10.77
2022-08-07T04:47:57.073Z,10.81
2022-08-07T04:48:47.488Z,10.78
2022-08-07T04:49:47.475Z,10.84
2022-08-07T04:50:52.993Z,10.95
2022-08-07T04:51:47.449Z,10.89
2022-08-07T04:52:51.055Z,11.02
2022-08-07T04:54:05.487Z,10.98
2022-08-07T04:54:50.646Z,10.99
2022-08-07T04:58:11.570Z,11.16
2022-08-07T04:58:11.623Z,11.03
2022-08-07T04:58:15.791Z,10.91
2022-08-07T05:00:12.442Z,11.17
2022-08-07T05:00:47.402Z,11.14
2022-08-07T05:01:46.368Z,11.11
2022-08-07T05:02:46.360Z,11.20
2022-08-07T05:04:07.737Z,11.21
2022-08-07T05:04:50.308Z,11.25
2022-08-07T05:05:52.945Z,11.28
2022-08-07T05:06:51.262Z,11.38
2022-08-07T05:07:46.330Z,11.36
2022-08-07T05:09:00.878Z,11.47
2022-08-07T05:09:47.274Z,11.46
2022-08-07T05:10:46.267Z,11.44
2022-08-07T05:11:57.057Z,11.53
2022-08-07T05:12:52.867Z,11.67
2022-08-07T05:14:54.219Z,11.65
2022-08-07T05:14:58.988Z,11.67
2022-08-07T05:15:47.219Z,11.68
2022-08-07T05:16:46.195Z,11.85
2022-08-07T05:17:50.795Z,11.96
2022-08-07T05:18:47.180Z,11.96
2022-08-07T05:19:46.178Z,12.05
2022-08-07T05:20:46.167Z,12.19
2022-08-07T05:21:59.923Z,12.05
2022-08-07T05:22:47.577Z,12.16
2022-08-07T05:23:46.140Z,12.20
2022-08-07T05:24:46.113Z,12.13
2022-08-07T05:26:11.238Z,12.20
2022-08-07T05:26:47.215Z,12.15
2022-08-07T05:28:16.424Z,12.34
2022-08-07T05:28:49.958Z,12.30
2022-08-07T05:29:51.098Z,12.33
2022-08-07T05:30:47.212Z,12.44
2022-08-07T05:31:51.069Z,12.42
2022-08-07T05:32:47.065Z,12.45
2022-08-07T05:33:51.251Z,12.51
2022-08-07T05:34:47.026Z,12.48
2022-08-07T05:35:46.019Z,12.57
2022-08-07T05:36:48.987Z,12.66
2022-08-07T05:37:45.990Z,12.57
2022-08-07T05:39:01.105Z,12.63
2022-08-07T05:40:07.040Z,12.66
2022-08-07T05:40:50.559Z,12.69
2022-08-07T05:42:00.432Z,12.70
2022-08-07T05:42:56.319Z,12.67
2022-08-07T05:44:07.748Z,12.60
2022-08-07T05:45:04.183Z,12.59
2022-08-07T05:45:48.361Z,12.60
2022-08-07T05:46:45.902Z,12.66
2022-08-07T05:48:01.596Z,12.71
2022-08-07T05:48:58.189Z,12.79
2022-08-07T05:49:46.874Z,12.89
2022-08-07T05:50:45.856Z,13.02
2022-08-07T05:51:46.353Z,12.93
2022-08-07T05:52:45.840Z,13.06
2022-08-07T05:54:13.486Z,13.07
2022-08-07T05:54:55.890Z,13.00
2022-08-07T05:56:03.869Z,13.27
2022-08-07T05:56:46.808Z,13.36
2022-08-07T05:57:45.795Z,13.36
2022-08-07T05:58:52.410Z,13.51
2022-08-07T05:59:55.904Z,13.52
2022-08-07T06:00:51.032Z,13.56
2022-08-07T06:01:45.828Z,13.58
2022-08-07T06:02:45.745Z,13.62
2022-08-07T06:03:57.056Z,13.88
2022-08-07T06:04:46.728Z,13.91
2022-08-07T06:05:49.065Z,13.98
2022-08-07T06:06:47.711Z,14.01
2022-08-07T06:08:13.716Z,14.20
2022-08-07T06:08:46.902Z,14.24
2022-08-07T06:10:05.431Z,14.31
2022-08-07T06:10:46.674Z,14.46
2022-08-07T06:11:45.655Z,14.53
2022-08-07T06:12:45.637Z,14.42
2022-08-07T06:14:11.676Z,14.53
2022-08-07T06:14:49.597Z,14.53
2022-08-07T06:15:45.619Z,14.64
2022-08-07T06:16:45.600Z,14.71
2022-08-07T06:17:53.494Z,14.80
2022-08-07T06:18:48.325Z,14.80
2022-08-07T06:19:51.876Z,14.81
2022-08-07T06:20:50.511Z,14.88
2022-08-07T06:22:16.687Z,14.88
2022-08-07T06:23:01.823Z,14.91
2022-08-07T06:24:45.691Z,15.03
2022-08-07T06:24:56.784Z,15.03
2022-08-07T06:25:54.848Z,15.13
2022-08-07T06:26:46.513Z,15.13
2022-08-07T06:28:01.375Z,15.28
2022-08-07T06:28:46.504Z,15.21
2022-08-07T06:29:45.480Z,15.38
2022-08-07T06:30:46.177Z,15.33
2022-08-07T06:31:49.904Z,15.49
2022-08-07T06:32:45.448Z,15.45
2022-08-07T06:33:45.473Z,15.56
2022-08-07T06:34:45.572Z,15.61
2022-08-07T06:36:06.110Z,15.61
2022-08-07T06:36:46.398Z,15.63
2022-08-07T06:37:45.607Z,15.70
2022-08-07T06:38:58.394Z,15.75
2022-08-07T06:40:13.237Z,15.88
2022-08-07T06:40:46.502Z,15.89
2022-08-07T06:42:01.116Z,15.93
2022-08-07T06:42:46.657Z,16.07
2022-08-07T06:43:46.205Z,16.12
2022-08-07T06:44:45.334Z,16.07
2022-08-07T06:45:45.311Z,16.14
2022-08-07T06:46:53.667Z,16.20
2022-08-07T06:47:57.329Z,16.38
2022-08-07T06:48:46.294Z,16.25
2022-08-07T06:49:50.774Z,16.27
2022-08-07T06:50:47.747Z,16.44
2022-08-07T06:51:49.856Z,16.59
2022-08-07T06:52:45.281Z,16.63
2022-08-07T06:55:27.359Z,16.74
2022-08-07T06:55:34.156Z,16.86
2022-08-07T06:55:59.906Z,16.90
2022-08-07T06:56:48.468Z,16.96
2022-08-07T06:57:52.020Z,16.92
2022-08-07T07:00:12.145Z,16.99
2022-08-07T07:00:13.438Z,17.10
2022-08-07T07:00:46.163Z,17.00
2022-08-07T07:01:48.710Z,17.06
2022-08-07T07:02:48.818Z,17.22
2022-08-07T07:03:48.211Z,17.22
2022-08-07T07:04:55.060Z,17.30
2022-08-07T07:06:02.931Z,17.40
2022-08-07T07:06:57.282Z,17.40
2022-08-07T07:07:59.623Z,17.50
2022-08-07T07:08:46.748Z,17.63
2022-08-07T07:09:45.072Z,17.59
2022-08-07T07:10:47.295Z,17.66
2022-08-07T07:12:09.902Z,17.70
2022-08-07T07:12:48.868Z,17.88
2022-08-07T07:13:58.370Z,17.89
2022-08-07T07:14:46.022Z,17.97
2022-08-07T07:15:45.015Z,18.00
2022-08-07T07:16:50.897Z,18.00
2022-08-07T07:17:45.206Z,17.97
2022-08-07T07:18:48.010Z,17.99
2022-08-07T07:19:57.708Z,18.04
2022-08-07T07:20:45.957Z,18.04
2022-08-07T07:22:11.417Z,18.09
2022-08-07T07:24:06.369Z,18.06
2022-08-07T07:24:08.642Z,18.06
2022-08-07T07:24:58.450Z,18.03
2022-08-07T07:26:32.841Z,18.07
2022-08-07T07:26:51.963Z,18.17
2022-08-07T07:27:58.489Z,18.27
2022-08-07T07:29:38.464Z,18.37
2022-08-07T07:30:09.091Z,18.42
2022-08-07T07:30:45.862Z,18.55
2022-08-07T07:31:46.501Z,18.50
2022-08-07T07:32:44.829Z,18.49
2022-08-07T07:33:44.847Z,18.52
2022-08-07T07:34:45.817Z,18.61
2022-08-07T07:36:03.962Z,18.61
2022-08-07T07:36:47.885Z,18.67
2022-08-07T07:37:49.414Z,18.76
2022-08-07T07:38:46.204Z,18.91
2022-08-07T07:39:45.772Z,19.06
2022-08-07T07:40:45.763Z,19.23
2022-08-07T07:42:01.941Z,19.24
2022-08-07T07:42:51.348Z,19.25
2022-08-07T07:44:13.771Z,19.25
2022-08-07T07:44:45.727Z,19.11
2022-08-07T07:46:40.189Z,19.13
2022-08-07T07:46:54.451Z,19.23
2022-08-07T07:47:52.408Z,19.29
2022-08-07T07:48:46.041Z,19.31
2022-08-07T07:50:35.771Z,19.42
2022-08-07T07:50:45.662Z,19.60
2022-08-07T07:51:57.435Z,19.61
2022-08-07T07:52:46.923Z,19.76
2022-08-07T07:53:51.400Z,19.83
2022-08-07T07:54:51.173Z,19.70
2022-08-07T07:55:57.451Z,19.68
2022-08-07T07:56:45.608Z,19.66
2022-08-07T07:57:53.814Z,19.86
2022-08-07T07:58:45.603Z,19.94
2022-08-07T07:59:52.321Z,19.91
2022-08-07T08:00:50.850Z,19.87
2022-08-07T08:02:03.812Z,19.94
2022-08-07T08:03:01.074Z,20.06
2022-08-07T08:04:06.301Z,20.12
2022-08-07T08:04:45.575Z,20.20
2022-08-07T08:05:54.966Z,20.16
2022-08-07T08:06:51.990Z,20.15
2022-08-07T08:08:00.066Z,20.25
2022-08-07T08:08:45.497Z,20.25
2022-08-07T08:09:52.122Z,20.35
2022-08-07T08:10:45.458Z,20.43
2022-08-07T08:11:47.159Z,20.65
2022-08-07T08:12:58.894Z,20.72
2022-08-07T08:13:54.704Z,20.84
2022-08-07T08:14:45.422Z,20.99
2022-08-07T08:15:59.098Z,20.87
2022-08-07T08:16:49.401Z,20.71
2022-08-07T08:18:18.450Z,20.56
2022-08-07T08:18:45.403Z,20.41
2022-08-07T08:20:18.222Z,20.34
2022-08-07T08:20:45.354Z,20.24
2022-08-07T08:21:56.928Z,20.28
2022-08-07T08:22:54.284Z,20.39
2022-08-07T08:23:45.367Z,20.54
2022-08-07T08:24:44.967Z,20.66
2022-08-07T08:25:49.016Z,20.72
2022-08-07T08:26:45.295Z,20.83
2022-08-07T08:27:56.361Z,20.89
2022-08-07T08:28:45.444Z,20.89
2022-08-07T08:29:55.505Z,21.06
2022-08-07T08:30:51.105Z,21.23
2022-08-07T08:32:16.929Z,21.30
2022-08-07T08:32:49.177Z,21.04
2022-08-07T08:33:49.807Z,20.83
2022-08-07T08:34:45.213Z,20.84
2022-08-07T08:35:49.710Z,20.83
2022-08-07T08:36:46.339Z,20.79
2022-08-07T08:38:00.842Z,20.86
2022-08-07T08:38:45.189Z,20.81
2022-08-07T08:39:55.068Z,20.42
2022-08-07T08:40:46.847Z,20.46
2022-08-07T08:41:57.109Z,20.61
2022-08-07T08:42:45.148Z,20.84
2022-08-07T08:43:56.148Z,20.95
2022-08-07T08:44:45.787Z,21.09
2022-08-07T08:45:59.279Z,21.23
2022-08-07T08:46:45.884Z,21.38
2022-08-07T08:47:52.036Z,21.51
2022-08-07T08:48:45.091Z,21.63
2022-08-07T08:49:46.853Z,21.66
2022-08-07T08:50:45.063Z,21.75
2022-08-07T08:52:13.239Z,21.78
2022-08-07T08:52:51.679Z,21.88
2022-08-07T08:53:44.040Z,22.06
2022-08-07T08:54:44.015Z,22.16
2022-08-07T08:55:55.211Z,22.16
2022-08-07T08:56:47.644Z,22.28
2022-08-07T08:57:43.989Z,22.39
2022-08-07T08:58:44.001Z,22.44
2022-08-07T08:59:48.030Z,22.46
2022-08-07T09:00:48.622Z,22.44
2022-08-07T09:01:49.088Z,22.44
2022-08-07T09:02:46.268Z,22.44
2022-08-07T09:03:49.379Z,22.49
2022-08-07T09:04:44.903Z,22.53
2022-08-07T09:05:43.907Z,22.37
2022-08-07T09:06:47.931Z,22.27
2022-08-07T09:07:46.502Z,21.97
2022-08-07T09:08:46.765Z,21.78
2022-08-07T09:09:43.857Z,21.54
2022-08-07T09:10:44.346Z,21.42
2022-08-07T09:11:54.195Z,21.42
2022-08-07T09:12:53.098Z,21.57
2022-08-07T09:13:43.887Z,21.66
2022-08-07T09:14:50.761Z,21.51
2022-08-07T09:16:22.153Z,21.51
2022-08-07T09:16:45.576Z,21.36
2022-08-07T09:18:00.428Z,21.17
2022-08-07T09:18:47.298Z,21.35
2022-08-07T09:19:53.179Z,21.56
2022-08-07T09:20:57.807Z,21.72
2022-08-07T09:22:22.455Z,21.82
2022-08-07T09:24:34.200Z,22.14
2022-08-07T09:24:54.865Z,21.99
2022-08-07T09:24:58.511Z,22.16
2022-08-07T09:25:54.315Z,22.16
2022-08-07T09:26:47.925Z,22.14
2022-08-07T09:28:00.331Z,22.23
2022-08-07T09:30:03.804Z,22.02
2022-08-07T09:30:04.693Z,22.19
2022-08-07T09:30:46.346Z,21.85
2022-08-07T09:31:49.387Z,21.98
2022-08-07T09:32:43.636Z,21.91
2022-08-07T09:33:57.190Z,21.99
2022-08-07T09:34:44.620Z,22.12
2022-08-07T09:36:03.282Z,22.06
2022-08-07T09:36:46.735Z,22.09
2022-08-07T09:37:53.433Z,22.04
2022-08-07T09:38:49.937Z,21.97
2022-08-07T09:39:54.267Z,22.09
2022-08-07T09:40:44.559Z,22.39
2022-08-07T09:42:03.146Z,22.53
2022-08-07T09:42:45.605Z,22.71
2022-08-07T09:44:20.001Z,22.84
2022-08-07T09:45:03.550Z,22.96
2022-08-07T09:47:42.630Z,23.09
2022-08-07T09:47:50.042Z,23.23
2022-08-07T09:47:56.208Z,23.42
2022-08-07T09:48:55.903Z,23.43
2022-08-07T09:50:01.995Z,23.27
2022-08-07T09:50:44.461Z,22.94
2022-08-07T09:52:17.071Z,22.69
2022-08-07T09:52:44.435Z,22.90
2022-08-07T09:53:55.146Z,23.01
2022-08-07T09:54:44.425Z,23.14
2022-08-07T09:56:03.379Z,23.31
2022-08-07T09:56:44.401Z,23.43
2022-08-07T09:57:46.391Z,23.50
2022-08-07T09:58:43.397Z,23.55
2022-08-07T10:00:00.387Z,23.65
2022-08-07T10:00:44.866Z,23.75
2022-08-07T10:01:50.971Z,23.80
2022-08-07T10:02:55.295Z,23.85
2022-08-07T10:04:03.304Z,23.82
2022-08-07T10:04:45.877Z,23.79
2022-08-07T10:06:01.276Z,23.72
2022-08-07T10:06:49.206Z,23.77
2022-08-07T10:07:52.586Z,23.72
2022-08-07T10:08:43.285Z,23.55
2022-08-07T10:10:01.147Z,23.60
2022-08-07T10:11:16.398Z,23.68
2022-08-07T10:12:02.326Z,23.90
2022-08-07T10:12:52.602Z,23.85
2022-08-07T10:14:00.716Z,23.80
2022-08-07T10:14:54.337Z,23.47
2022-08-07T10:15:44.937Z,23.09
2022-08-07T10:16:43.245Z,22.92
2022-08-07T10:18:01.778Z,22.96
2022-08-07T10:18:44.184Z,22.92
2022-08-07T10:19:43.201Z,23.01
2022-08-07T10:20:44.403Z,23.08
2022-08-07T10:22:12.179Z,23.14
2022-08-07T10:22:45.325Z,23.29
2022-08-07T10:24:05.410Z,23.29
2022-08-07T10:24:44.221Z,23.27
2022-08-07T10:25:43.671Z,23.38
2022-08-07T10:26:44.201Z,23.23
2022-08-07T10:27:46.379Z,23.22
2022-08-07T10:28:43.412Z,23.19
2022-08-07T10:29:45.916Z,23.02
2022-08-07T10:30:45.081Z,22.84
2022-08-07T10:31:45.323Z,22.90
2022-08-07T10:32:53.140Z,23.09
2022-08-07T10:34:06.877Z,23.24
2022-08-07T10:34:45.263Z,23.24
2022-08-07T10:35:56.641Z,23.15
2022-08-07T10:36:45.590Z,22.99
2022-08-07T10:38:00.684Z,23.14
2022-08-07T10:38:49.583Z,23.08
2022-08-07T10:40:02.612Z,22.97
2022-08-07T10:40:43.953Z,22.97
2022-08-07T10:41:51.470Z,23.19
2022-08-07T10:42:43.958Z,23.38
2022-08-07T10:43:42.947Z,23.26
2022-08-07T10:44:45.465Z,23.42
2022-08-07T10:45:57.697Z,23.55
2022-08-07T10:46:43.980Z,23.49
2022-08-07T10:47:52.931Z,23.64
2022-08-07T10:48:44.100Z,23.67
2022-08-07T10:49:49.236Z,23.71
2022-08-07T10:50:44.882Z,23.47
2022-08-07T10:52:02.307Z,23.57
2022-08-07T10:52:48.641Z,23.57
2022-08-07T10:53:44.730Z,23.52
2022-08-07T10:54:42.856Z,23.31
2022-08-07T10:55:43.825Z,23.34
2022-08-07T10:56:42.817Z,23.55
2022-08-07T10:57:42.787Z,23.67
2022-08-07T10:58:42.783Z,23.79
2022-08-07T10:59:47.403Z,23.90
2022-08-07T11:00:50.598Z,23.85
2022-08-07T11:01:52.135Z,23.79
2022-08-07T11:02:48.961Z,23.80
2022-08-07T11:03:52.804Z,23.89
2022-08-07T11:04:43.753Z,23.89
2022-08-07T11:05:49.167Z,23.90
2022-08-07T11:06:44.588Z,23.94
2022-08-07T11:07:58.475Z,23.97
2022-08-07T11:08:43.692Z,23.92
2022-08-07T11:10:07.861Z,23.98
2022-08-07T11:10:43.662Z,24.04
2022-08-07T11:11:43.661Z,24.10
2022-08-07T11:12:43.653Z,24.14
2022-08-07T11:14:57.435Z,24.12
2022-08-07T11:15:00.808Z,24.14
2022-08-07T11:15:43.624Z,24.22
2022-08-07T11:16:45.892Z,24.23
2022-08-07T11:17:45.848Z,24.26
2022-08-07T11:18:42.592Z,24.32
2022-08-07T11:19:42.601Z,24.32
2022-08-07T11:20:42.755Z,24.32
2022-08-07T11:21:43.114Z,24.20
2022-08-07T11:22:46.151Z,23.86
2022-08-07T11:23:42.584Z,23.76
2022-08-07T11:24:45.623Z,23.65
2022-08-07T11:25:49.698Z,23.76
2022-08-07T11:26:49.837Z,23.82
2022-08-07T11:28:01.693Z,23.97
2022-08-07T11:28:43.504Z,23.85
2022-08-07T11:29:48.127Z,23.76
2022-08-07T11:30:43.470Z,23.72
2022-08-07T11:31:42.466Z,23.75
2022-08-07T11:32:42.463Z,23.76
2022-08-07T11:33:54.115Z,23.97
2022-08-07T11:34:43.449Z,23.86
2022-08-07T11:35:59.121Z,23.97
2022-08-07T11:36:43.418Z,24.10
2022-08-07T11:37:58.057Z,24.23
2022-08-07T11:38:43.394Z,24.32
2022-08-07T11:39:59.492Z,24.44
2022-08-07T11:40:49.536Z,24.31
2022-08-07T11:42:02.394Z,24.01
2022-08-07T11:42:43.357Z,24.13
2022-08-07T11:44:10.870Z,24.26
2022-08-07T11:44:52.640Z,24.35
2022-08-07T11:45:53.105Z,24.50
2022-08-07T11:46:43.306Z,24.56
2022-08-07T11:47:58.780Z,24.59
2022-08-07T11:48:54.003Z,24.60
2022-08-07T11:50:25.390Z,24.64
2022-08-07T11:50:44.532Z,24.67
2022-08-07T11:51:46.653Z,24.75
2022-08-07T11:52:43.259Z,24.82
2022-08-07T11:53:43.385Z,24.90
2022-08-07T11:54:54.504Z,24.95
2022-08-07T11:56:24.975Z,24.76
2022-08-07T11:56:43.215Z,24.61
2022-08-07T11:58:00.525Z,24.68
2022-08-07T11:58:43.192Z,24.60
2022-08-07T12:00:11.499Z,24.56
2022-08-07T12:00:48.795Z,24.56
2022-08-07T12:01:59.135Z,24.59
2022-08-07T12:02:52.016Z,24.63
2022-08-07T12:03:45.476Z,24.45
2022-08-07T12:04:43.172Z,24.42
2022-08-07T12:05:49.594Z,24.27
2022-08-07T12:06:55.337Z,24.20
2022-08-07T12:07:43.398Z,24.27
2022-08-07T12:08:42.512Z,24.38
2022-08-07T12:09:42.093Z,24.41
2022-08-07T12:10:42.229Z,24.27
2022-08-07T12:11:43.473Z,24.10
2022-08-07T12:12:43.047Z,23.94
2022-08-07T12:13:47.461Z,23.86
2022-08-07T12:14:43.056Z,23.85
2022-08-07T12:16:05.469Z,23.82
2022-08-07T12:16:43.017Z,24.02
2022-08-07T12:17:59.833Z,24.05
2022-08-07T12:18:45.525Z,23.86
2022-08-07T12:19:56.385Z,23.86
2022-08-07T12:20:42.989Z,23.86
2022-08-07T12:22:35.657Z,23.97
2022-08-07T12:22:56.340Z,24.10
2022-08-07T12:24:07.317Z,24.32
2022-08-07T12:24:42.958Z,24.34
2022-08-07T12:26:05.700Z,24.37
2022-08-07T12:26:47.376Z,24.26
2022-08-07T12:28:09.646Z,24.16
2022-08-07T12:28:45.196Z,24.12
2022-08-07T12:29:42.908Z,23.98
2022-08-07T12:30:46.792Z,23.82
2022-08-07T12:32:02.071Z,23.71
2022-08-07T12:32:42.861Z,23.72
2022-08-07T12:33:56.004Z,23.79
2022-08-07T12:34:49.480Z,23.77
2022-08-07T12:35:42.829Z,23.62
2022-08-07T12:36:42.811Z,23.35
2022-08-07T12:38:10.169Z,23.14
2022-08-07T12:38:47.488Z,23.23
2022-08-07T12:39:50.448Z,23.45
2022-08-07T12:40:48.148Z,23.45
2022-08-07T12:41:51.605Z,23.34
2022-08-07T12:42:52.582Z,23.62
2022-08-07T12:44:02.907Z,23.79
2022-08-07T12:44:44.847Z,23.86
2022-08-07T12:45:41.727Z,23.98
2022-08-07T12:46:41.720Z,24.08
2022-08-07T12:47:41.714Z,24.22
2022-08-07T12:48:53.029Z,24.34
2022-08-07T12:49:51.544Z,24.20
2022-08-07T12:50:49.499Z,24.20
2022-08-07T12:51:51.114Z,24.07
2022-08-07T12:52:42.647Z,24.19
2022-08-07T12:54:03.209Z,24.31